Time;durP1;ratioP1;P1;durP2;ratioP2;P2;SDS_P1;SDS_P2;PMS_P1;PMS_P2;Temp;Humidity;BMP_temperature;BMP_pressure;BME280_temperature;BME280_humidity;BME280_pressure;Samples;Min_cycle;Max_cycle;Signal;HPM_P1;HPM_P2
2022/01/31 07:03:17;;;;;;;25.80;6.70;;;;;;;0.83;73.99;98874.64;106541;1275;138516;-72
2022/01/31 07:05:47;;;;;;;24.40;6.00;;;;;;;1.09;73.80;98874.23;106906;1281;112095;-73
2022/01/31 07:08:16;;;;;;;19.90;6.30;;;;;;;1.33;73.18;98878.47;106810;1281;139141;-72
2022/01/31 07:10:50;;;;;;;18.20;5.70;;;;;;;1.44;72.87;98887.69;106922;1281;109051;-73
2022/01/31 07:13:36;;;;;;;21.30;5.50;;;;;;;1.47;72.71;98886.79;106759;1281;138356;-73
2022/01/31 07:16:06;;;;;;;23.20;5.70;;;;;;;1.45;72.38;98882.04;106896;1281;96215;-73
2022/01/31 07:18:36;;;;;;;14.70;4.70;;;;;;;1.40;72.53;98878.33;106998;1281;111371;-73
2022/01/31 07:21:05;;;;;;;15.80;5.10;;;;;;;1.32;72.23;98877.79;106777;1281;138415;-72
2022/01/31 07:23:51;;;;;;;17.50;5.20;;;;;;;1.29;72.23;98874.09;106838;1281;109278;-72
2022/01/31 07:26:19;;;;;;;11.40;4.70;;;;;;;1.27;72.24;98874.11;106795;1281;138451;-73
2022/01/31 07:28:48;;;;;;;20.70;5.70;;;;;;;1.22;72.28;98881.02;106850;1281;96129;-74
2022/01/31 07:31:17;;;;;;;13.60;5.10;;;;;;;1.18;72.31;98881.27;106892;1279;111824;-73
2022/01/31 07:33:45;;;;;;;19.90;5.60;;;;;;;1.17;72.47;98880.61;106806;1281;138110;-75
2022/01/31 07:36:14;;;;;;;19.10;6.00;;;;;;;1.19;72.69;98879.20;106914;1281;109028;-74
2022/01/31 07:38:43;;;;;;;20.50;5.90;;;;;;;1.26;72.51;98871.39;106732;1281;137871;-74
2022/01/31 07:41:14;;;;;;;19.00;5.40;;;;;;;1.31;72.07;98864.30;106920;1281;96171;-73
2022/01/31 07:43:44;;;;;;;16.60;5.80;;;;;;;1.36;72.48;98872.25;106595;1281;137707;-74
2022/01/31 07:46:14;;;;;;;16.80;5.30;;;;;;;1.42;71.88;98870.23;106895;1281;109029;-74
2022/01/31 07:48:43;;;;;;;17.40;5.00;;;;;;;1.42;71.78;98866.30;106940;1281;107914;-74
2022/01/31 07:51:11;;;;;;;18.90;5.30;;;;;;;1.41;71.71;98868.90;106829;1281;137776;-73
2022/01/31 07:53:40;;;;;;;18.80;5.20;;;;;;;1.36;71.94;98865.39;106934;1281;96191;-74
2022/01/31 07:56:09;;;;;;;16.70;4.90;;;;;;;1.31;71.85;98858.80;106854;1281;138370;-74
2022/01/31 07:58:38;;;;;;;17.20;4.70;;;;;;;1.27;71.82;98853.41;106799;1281;109078;-74
2022/01/31 08:01:07;;;;;;;14.40;4.30;;;;;;;1.27;72.06;98858.54;106866;1280;109079;-73
2022/01/31 08:03:37;;;;;;;15.00;4.50;;;;;;;1.28;72.12;98853.38;106646;1281;138519;-74
2022/01/31 08:06:06;;;;;;;17.10;4.60;;;;;;;1.29;71.74;98854.41;106747;1282;96230;-75
2022/01/31 08:08:35;;;;;;;18.30;5.30;;;;;;;1.29;71.67;98853.71;106591;1284;138249;-74
2022/01/31 08:11:05;;;;;;;19.60;5.10;;;;;;;1.31;71.81;98857.77;106721;1283;108997;-75
2022/01/31 08:13:34;;;;;;;19.00;5.80;;;;;;;1.32;71.66;98859.30;106604;1284;138561;-73
2022/01/31 08:16:09;;;;;;;17.90;5.10;;;;;;;1.27;71.62;98859.91;106634;1282;97155;-72
2022/01/31 08:18:40;;;;;;;18.80;5.70;;;;;;;1.29;71.81;98856.27;106667;1284;96324;-72
2022/01/31 08:21:11;;;;;;;21.60;5.30;;;;;;;1.32;71.21;98852.64;106581;1283;138465;-72
2022/01/31 08:23:40;;;;;;;23.30;5.90;;;;;;;1.30;71.62;98856.27;106703;1283;108037;-72
2022/01/31 08:26:14;;;;;;;22.20;5.30;;;;;;;1.36;71.33;98854.27;106580;1282;139536;-72
2022/01/31 08:28:47;;;;;;;14.60;5.10;;;;;;;1.44;71.34;98850.19;106721;1283;96163;-73
2022/01/31 08:31:16;;;;;;;13.70;4.80;;;;;;;1.47;70.89;98842.42;106713;1282;96132;-72
2022/01/31 08:33:49;;;;;;;22.60;5.40;;;;;;;1.51;71.01;98843.20;106532;1283;137445;-73
2022/01/31 08:36:18;;;;;;;16.40;4.30;;;;;;;1.56;70.95;98841.57;106730;1283;108947;-73
2022/01/31 08:38:47;;;;;;;13.00;4.30;;;;;;;1.63;71.20;98844.19;106497;1282;140389;-72
2022/01/31 08:41:16;;;;;;;16.70;4.10;;;;;;;1.77;70.79;98832.45;106645;1282;96303;-74
2022/01/31 08:43:45;;;;;;;14.40;4.10;;;;;;;1.90;70.53;98829.95;106559;1283;138620;-74
2022/01/31 08:46:15;;;;;;;12.60;4.00;;;;;;;1.98;69.77;98824.16;106714;1282;114233;-73
2022/01/31 08:48:44;;;;;;;17.10;4.50;;;;;;;2.01;69.73;98829.23;106724;1282;109021;-73
2022/01/31 08:51:13;;;;;;;14.40;4.40;;;;;;;2.03;69.85;98829.70;106617;1282;139470;-73
2022/01/31 08:53:42;;;;;;;18.60;4.80;;;;;;;2.02;69.44;98835.04;106643;1282;96532;-74
2022/01/31 08:56:12;;;;;;;16.40;4.40;;;;;;;2.02;69.82;98831.11;106425;1282;139188;-74
2022/01/31 08:58:46;;;;;;;17.10;4.80;;;;;;;2.03;69.62;98825.05;106711;1282;113581;-74
2022/01/31 09:01:17;;;;;;;21.00;5.20;;;;;;;2.04;69.49;98830.02;106672;1283;108096;-73
2022/01/31 09:04:04;;;;;;;16.20;5.10;;;;;;;2.06;69.52;98828.77;106567;1282;138267;-74
2022/01/31 09:06:35;;;;;;;16.60;5.20;;;;;;;2.04;69.46;98830.37;106556;1283;96333;-74
2022/01/31 09:09:08;;;;;;;16.70;4.80;;;;;;;2.00;69.05;98824.62;106616;1283;138001;-73
2022/01/31 09:11:37;;;;;;;17.20;4.90;;;;;;;1.92;69.24;98825.46;106666;1283;112638;-73
2022/01/31 09:14:05;;;;;;;14.30;4.40;;;;;;;1.90;69.75;98819.51;106432;1283;138083;-74
2022/01/31 09:17:47;;;;;;;22.20;5.40;;;;;;;2.06;69.81;98821.40;102742;1310;637211;-74
2022/01/31 09:20:20;;;;;;;18.70;5.00;;;;;;;2.14;69.23;98818.99;105487;1278;136775;-72
2022/01/31 09:22:51;;;;;;;13.30;4.70;;;;;;;2.13;69.23;98818.33;105335;1283;94439;-72
2022/01/31 09:25:26;;;;;;;18.30;5.50;;;;;;;2.11;68.77;98814.95;105461;1283;108550;-72
2022/01/31 09:27:59;;;;;;;21.70;5.90;;;;;;;2.12;68.99;98808.08;106814;1282;136938;-72
2022/01/31 09:30:31;;;;;;;19.20;4.50;;;;;;;2.16;68.57;98800.96;105785;1281;177910;-71
2022/01/31 09:33:04;;;;;;;17.50;4.60;;;;;;;2.22;68.06;98797.05;105488;1281;136548;-73
2022/01/31 09:35:36;;;;;;;19.50;4.60;;;;;;;2.34;68.06;98796.97;105653;1280;94391;-72
2022/01/31 09:38:11;;;;;;;15.70;4.80;;;;;;;2.54;68.01;98799.09;106080;1271;136802;-71
2022/01/31 09:40:43;;;;;;;16.40;4.70;;;;;;;2.71;67.40;98787.88;106164;1271;107815;-72
2022/01/31 09:43:52;;;;;;;13.50;4.90;;;;;;;2.95;67.54;98780.95;106025;1272;109365;-73
2022/01/31 09:49:19;;;;;;;14.50;4.30;;;;;;;3.57;66.30;98770.06;106022;1273;95222;-73
2022/01/31 09:51:52;;;;;;;12.50;3.80;;;;;;;3.95;65.67;98762.10;106008;1272;136643;-72
2022/01/31 09:54:27;;;;;;;14.00;4.40;;;;;;;4.21;65.40;98761.15;105989;1273;107026;-71
2022/01/31 09:56:59;;;;;;;12.70;4.20;;;;;;;4.59;64.22;98758.25;106074;1271;136789;-72
2022/01/31 09:59:31;;;;;;;13.40;3.70;;;;;;;4.87;62.36;98757.18;106078;1271;95127;-71
2022/01/31 10:02:11;;;;;;;13.40;3.50;;;;;;;4.96;61.09;98753.60;105917;1273;136922;-71
2022/01/31 10:04:48;;;;;;;13.20;4.00;;;;;;;5.31;62.07;98748.29;106116;1271;109275;-73
2022/01/31 10:07:21;;;;;;;17.10;5.40;;;;;;;5.66;61.10;98748.94;106054;1271;108853;-73
2022/01/31 10:09:53;;;;;;;12.10;3.70;;;;;;;5.74;60.39;98738.96;106011;1274;137328;-72
2022/01/31 10:16:24;;;;;;;15.20;3.30;;;;;;;5.86;59.18;98738.70;106068;1273;95286;-72
2022/01/31 10:18:09;;;;;;;9.60;3.70;;;;;;;5.54;57.88;98740.94;107729;1271;109947;-73
2022/01/31 10:21:02;;;;;;;12.70;3.60;;;;;;;5.40;58.17;98743.64;107620;1271;136583;-73
2022/01/31 10:23:43;;;;;;;12.70;3.60;;;;;;;5.21;58.64;98742.41;106186;1272;108810;-72
2022/01/31 10:26:32;;;;;;;10.80;4.30;;;;;;;5.20;59.09;98744.02;106002;1271;137316;-72
2022/01/31 10:29:15;;;;;;;11.50;4.30;;;;;;;5.53;59.36;98745.95;106042;1271;95111;-72
2022/01/31 10:32:03;;;;;;;11.00;3.90;;;;;;;5.88;58.66;98736.90;105965;1273;109931;-73
2022/01/31 10:34:37;;;;;;;6.80;2.90;;;;;;;5.91;57.11;98727.48;106056;1271;137374;-72
2022/01/31 10:37:13;;;;;;;8.30;3.20;;;;;;;5.87;56.92;98728.16;106134;1274;108750;-71
2022/01/31 10:45:47;;;;;;;13.70;4.10;;;;;;;5.43;56.57;98719.05;105986;1271;137771;-73
2022/01/31 10:54:28;;;;;;;10.80;3.40;;;;;;;5.20;56.73;98721.61;106103;1274;95116;-72
2022/01/31 10:57:03;;;;;;;13.40;4.30;;;;;;;5.08;56.53;98718.59;105939;1274;136867;-72
2022/01/31 10:59:43;;;;;;;10.90;3.30;;;;;;;5.11;56.95;98715.70;106046;1271;108825;-73
2022/01/31 11:02:19;;;;;;;10.80;3.70;;;;;;;5.05;55.93;98704.36;105942;1273;136986;-71
2022/01/31 11:04:53;;;;;;;9.70;3.90;;;;;;;5.08;55.99;98701.34;107697;1271;108824;-72
2022/01/31 11:07:29;;;;;;;9.90;3.60;;;;;;;5.21;55.79;98694.52;106430;1272;95244;-73
2022/01/31 11:10:01;;;;;;;7.90;3.70;;;;;;;5.38;56.14;98694.26;106017;1273;137159;-71
2022/01/31 11:12:34;;;;;;;10.00;3.60;;;;;;;5.44;55.14;98692.33;106110;1274;108591;-71
2022/01/31 11:15:07;;;;;;;11.50;3.70;;;;;;;5.28;54.99;98693.06;106074;1271;136833;-71
2022/01/31 11:17:39;;;;;;;12.10;3.50;;;;;;;5.08;54.72;98693.61;106706;1273;109985;-72
2022/01/31 11:20:13;;;;;;;8.70;3.30;;;;;;;4.92;54.82;98695.71;106074;1273;95215;-71
2022/01/31 11:22:56;;;;;;;10.50;2.90;;;;;;;4.72;55.08;98702.56;105949;1273;136462;-72
2022/01/31 11:25:29;;;;;;;9.60;3.30;;;;;;;4.49;54.70;98709.17;106028;1273;109858;-71
2022/01/31 11:28:04;;;;;;;9.10;3.00;;;;;;;4.29;55.38;98709.63;106023;1273;137080;-71
2022/01/31 11:30:37;;;;;;;8.20;3.20;;;;;;;4.14;55.68;98709.74;106095;1273;106661;-72
2022/01/31 11:33:16;;;;;;;8.90;2.90;;;;;;;3.94;55.27;98715.52;105999;1272;136584;-71
2022/01/31 11:35:49;;;;;;;8.50;2.50;;;;;;;3.73;55.18;98709.77;106116;1273;95170;-70
2022/01/31 11:38:22;;;;;;;6.70;2.70;;;;;;;3.53;55.73;98709.13;106126;1274;109861;-71
2022/01/31 11:40:55;;;;;;;10.60;2.70;;;;;;;3.41;56.24;98716.36;107537;1273;136450;-72
2022/01/31 11:43:27;;;;;;;8.90;2.90;;;;;;;3.34;56.51;98720.16;107637;1274;109018;-71
2022/01/31 11:46:01;;;;;;;7.10;2.40;;;;;;;3.27;56.98;98721.38;106070;1273;138005;-70
2022/01/31 11:48:33;;;;;;;7.20;2.60;;;;;;;3.23;57.07;98725.98;106004;1274;95195;-72
2022/01/31 11:51:05;;;;;;;7.40;2.90;;;;;;;3.15;56.71;98725.48;105971;1273;137014;-73
2022/01/31 11:53:40;;;;;;;9.80;3.00;;;;;;;3.05;56.91;98722.31;106155;1273;109044;-72
2022/01/31 11:56:18;;;;;;;9.10;3.20;;;;;;;2.98;56.88;98720.27;105963;1273;108881;-72
2022/01/31 11:58:52;;;;;;;8.50;2.50;;;;;;;2.90;57.05;98717.73;105862;1274;137879;-72
2022/01/31 12:01:31;;;;;;;7.20;2.20;;;;;;;2.80;56.79;98722.95;106090;1273;95238;-70
2022/01/31 12:04:04;;;;;;;8.40;2.60;;;;;;;2.70;57.02;98719.96;105937;1273;136638;-72
2022/01/31 12:06:38;;;;;;;;;;;;;;;2.63;57.15;98724.75;106151;1273;109203;-72
2022/01/31 12:09:16;;;;;;;7.40;2.40;;;;;;;2.54;57.24;98726.02;105933;1273;124803;-73
2022/01/31 12:12:02;;;;;;;6.80;2.70;;;;;;;2.47;57.62;98726.33;106091;1273;95170;-72
2022/01/31 12:14:48;;;;;;;9.70;2.90;;;;;;;2.50;58.03;98721.98;106265;1274;137262;-71
2022/01/31 12:17:58;;;;;;;9.60;3.00;;;;;;;2.65;58.06;98722.64;106250;1271;109611;-72
2022/01/31 12:23:52;;;;;;;10.40;2.70;;;;;;;3.06;58.02;98717.84;106079;1271;108739;-72
2022/01/31 12:26:37;;;;;;;9.50;3.20;;;;;;;3.10;57.64;98712.25;106140;1274;95246;-73
2022/01/31 12:29:15;;;;;;;15.00;3.80;;;;;;;3.09;57.52;98715.36;105991;1274;136827;-72
2022/01/31 12:31:48;;;;;;;10.40;4.00;;;;;;;3.06;57.62;98714.91;105978;1271;109686;-71
2022/01/31 12:34:41;;;;;;;15.20;4.40;;;;;;;3.00;57.93;98708.36;106040;1274;137377;-72
2022/01/31 12:37:34;;;;;;;15.40;4.70;;;;;;;3.01;57.97;98711.23;106183;1271;108852;-72
2022/01/31 12:40:15;;;;;;;9.90;3.40;;;;;;;3.03;58.01;98707.92;105980;1271;137382;-71
2022/01/31 12:42:57;;;;;;;11.00;3.40;;;;;;;3.02;57.81;98709.67;107594;1271;94393;-71
2022/01/31 12:45:54;;;;;;;12.70;3.20;;;;;;;3.08;57.01;98695.48;105921;1273;137637;-71
2022/01/31 12:48:27;;;;;;;11.40;3.20;;;;;;;3.17;57.23;98699.85;106068;1273;108797;-72
2022/01/31 12:51:16;;;;;;;11.40;3.30;;;;;;;3.29;57.67;98698.31;105762;1271;137389;-71
2022/01/31 12:53:50;;;;;;;12.70;3.10;;;;;;;3.43;57.67;98693.14;106150;1270;95141;-71
2022/01/31 12:56:34;;;;;;;9.80;3.10;;;;;;;3.47;57.43;98698.48;107554;1269;95114;-72
2022/01/31 12:59:13;;;;;;;10.80;3.50;;;;;;;3.47;57.38;98703.15;106112;1270;136666;-70
2022/01/31 13:01:48;;;;;;;14.10;4.00;;;;;;;3.41;57.12;98705.70;106463;1270;107651;-71
2022/01/31 13:04:23;;;;;;;10.80;3.70;;;;;;;3.34;57.07;98702.99;107765;1269;137641;-72
2022/01/31 13:06:59;;;;;;;8.70;3.20;;;;;;;3.26;57.25;98704.92;107146;1268;95856;-72
2022/01/31 13:09:51;;;;;;;13.20;3.40;;;;;;;3.32;57.82;98708.70;106218;1269;138201;-71
2022/01/31 13:12:25;;;;;;;8.80;3.50;;;;;;;3.46;58.00;98710.05;106384;1270;109893;-72
2022/01/31 13:14:57;;;;;;;8.90;4.00;;;;;;;3.58;58.03;98717.94;106198;1270;137041;-72
2022/01/31 13:17:29;;;;;;;10.00;3.30;;;;;;;3.58;57.21;98722.23;106372;1268;108693;-71
2022/01/31 13:20:05;;;;;;;10.70;3.50;;;;;;;3.49;56.56;98725.76;106406;1267;95138;-70
2022/01/31 13:22:38;;;;;;;8.90;3.10;;;;;;;3.37;56.59;98727.45;106208;1268;137122;-71
2022/01/31 13:25:13;;;;;;;12.40;3.50;;;;;;;3.25;57.09;98733.80;106272;1268;109895;-69
2022/01/31 13:28:08;;;;;;;10.50;3.50;;;;;;;3.15;56.67;98730.31;107670;1268;139445;-70
2022/01/31 13:30:40;;;;;;;12.40;3.20;;;;;;;3.03;56.75;98728.21;106556;1268;108884;-69
2022/01/31 13:33:12;;;;;;;10.80;3.00;;;;;;;2.86;56.65;98727.42;106231;1268;137328;-68
2022/01/31 13:35:46;;;;;;;9.40;3.50;;;;;;;2.76;56.56;98729.59;106457;1267;95128;-68
2022/01/31 13:38:21;;;;;;;9.80;3.80;;;;;;;2.66;56.99;98732.05;106403;1268;109868;-69
2022/01/31 13:40:56;;;;;;;10.60;3.30;;;;;;;2.57;57.30;98732.27;106235;1268;137406;-70
2022/01/31 13:43:33;;;;;;;12.20;3.70;;;;;;;2.52;57.52;98731.56;106341;1268;108816;-71
2022/01/31 13:46:16;;;;;;;13.70;4.00;;;;;;;2.47;57.48;98739.71;106218;1268;139094;-71
2022/01/31 13:48:56;;;;;;;10.80;3.50;;;;;;;2.40;57.80;98751.88;106335;1267;96504;-71
2022/01/31 13:51:33;;;;;;;14.00;3.50;;;;;;;2.34;57.89;98752.71;106264;1268;137755;-67
2022/01/31 13:54:08;;;;;;;10.70;3.70;;;;;;;2.33;58.08;98750.51;106318;1268;108846;-69
2022/01/31 13:56:45;;;;;;;11.60;3.70;;;;;;;2.32;58.09;98754.80;107874;1268;108999;-69
2022/01/31 13:59:21;;;;;;;12.90;4.00;;;;;;;2.30;58.09;98755.03;107680;1268;136895;-69
2022/01/31 14:02:05;;;;;;;17.80;4.50;;;;;;;2.29;58.49;98755.73;107906;1268;94461;-70
2022/01/31 14:04:40;;;;;;;13.50;4.60;;;;;;;2.31;58.56;98756.39;107794;1267;136983;-71
2022/01/31 14:07:26;;;;;;;16.40;6.30;;;;;;;2.31;58.97;98756.36;107948;1265;109039;-71
2022/01/31 14:09:59;;;;;;;20.00;7.00;;;;;;;2.31;59.30;98758.78;107886;1267;137230;-70
2022/01/31 14:12:32;;;;;;;14.60;6.00;;;;;;;2.31;59.38;98756.36;107921;1268;94782;-70
2022/01/31 14:15:08;;;;;;;16.30;5.80;;;;;;;2.32;59.14;98754.46;106546;1267;137306;-70
2022/01/31 14:17:41;;;;;;;19.20;5.40;;;;;;;2.33;58.82;98753.41;106360;1268;110036;-71
2022/01/31 14:20:14;;;;;;;10.20;4.30;;;;;;;2.32;58.62;98751.38;106395;1267;109024;-70
2022/01/31 14:22:46;;;;;;;11.70;4.50;;;;;;;2.28;58.81;98757.48;106283;1268;138230;-70
2022/01/31 14:25:18;;;;;;;14.00;4.90;;;;;;;2.22;58.81;98755.23;106250;1267;96596;-71
2022/01/31 14:27:54;;;;;;;15.20;5.60;;;;;;;2.17;58.68;98762.89;106221;1270;137156;-71
2022/01/31 14:30:26;;;;;;;20.40;6.80;;;;;;;2.13;59.72;98763.29;107378;1268;111324;-71
2022/01/31 14:33:07;;;;;;;18.70;6.50;;;;;;;2.09;60.72;98760.47;106365;1267;108901;-70
2022/01/31 14:35:39;;;;;;;16.50;6.50;;;;;;;2.03;61.26;98763.18;106194;1267;137459;-69
2022/01/31 14:38:20;;;;;;;17.40;6.70;;;;;;;1.96;61.36;98764.52;106352;1267;97831;-71
2022/01/31 14:49:30;;;;;;;17.00;6.10;;;;;;;1.66;62.99;98766.35;106413;1268;108879;-70
2022/01/31 14:52:08;;;;;;;17.30;6.60;;;;;;;1.64;63.13;98764.34;106284;1267;138419;-71
2022/01/31 14:54:41;;;;;;;13.90;6.50;;;;;;;1.63;63.35;98760.77;106284;1267;96456;-72
2022/01/31 14:57:14;;;;;;;15.80;6.60;;;;;;;1.62;63.47;98766.26;106427;1267;109973;-70
2022/01/31 14:59:46;;;;;;;21.80;8.00;;;;;;;1.60;63.71;98769.54;106703;1267;137534;-70
2022/01/31 15:02:18;;;;;;;17.50;7.20;;;;;;;1.57;63.65;98765.16;106346;1268;108772;-69
2022/01/31 15:05:05;;;;;;;21.00;7.70;;;;;;;1.54;63.79;98763.67;106216;1268;139349;-71
2022/01/31 15:07:38;;;;;;;31.50;8.50;;;;;;;1.50;63.80;98767.17;107961;1267;94837;-70
2022/01/31 15:10:12;;;;;;;24.50;8.30;;;;;;;1.44;63.71;98761.80;107699;1268;137093;-70
2022/01/31 15:12:45;;;;;;;22.50;8.10;;;;;;;1.39;63.65;98763.27;107894;1268;107882;-71
2022/01/31 15:15:20;;;;;;;21.80;9.30;;;;;;;1.34;63.71;98771.42;106880;1270;107627;-70
2022/01/31 15:17:52;;;;;;;33.30;10.00;;;;;;;1.28;63.85;98775.15;106324;1267;137650;-71
2022/01/31 15:20:24;;;;;;;25.00;10.20;;;;;;;1.25;64.00;98783.75;106369;1268;96570;-71
2022/01/31 15:22:57;;;;;;;24.50;9.00;;;;;;;1.23;64.14;98781.02;106236;1268;137295;-71
2022/01/31 15:25:31;;;;;;;21.30;8.70;;;;;;;1.23;64.14;98782.58;107909;1268;108336;-71
2022/01/31 15:28:03;;;;;;;20.20;8.60;;;;;;;1.19;64.37;98779.40;107748;1266;139202;-71
2022/01/31 15:30:35;;;;;;;27.50;9.60;;;;;;;1.15;64.55;98781.52;107715;1267;95115;-71
2022/01/31 15:33:08;;;;;;;25.70;9.80;;;;;;;1.12;64.65;98779.70;106354;1268;96485;-69
2022/01/31 15:35:40;;;;;;;27.70;9.10;;;;;;;1.09;64.91;98787.28;106197;1268;139005;-72
2022/01/31 15:38:13;;;;;;;19.40;8.70;;;;;;;1.08;65.14;98794.83;106277;1268;108780;-71
2022/01/31 15:40:45;;;;;;;23.60;9.40;;;;;;;1.10;65.38;98799.94;107734;1268;137882;-71
2022/01/31 15:43:17;;;;;;;24.90;10.00;;;;;;;1.12;65.39;98799.21;107893;1267;95010;-72
2022/01/31 15:45:49;;;;;;;28.90;10.50;;;;;;;1.12;65.58;98795.45;107693;1268;137883;-72
2022/01/31 15:48:26;;;;;;;24.60;9.00;;;;;;;1.14;65.73;98793.52;107903;1268;111189;-72
2022/01/31 15:50:58;;;;;;;26.80;8.70;;;;;;;1.16;65.83;98791.77;107889;1267;108905;-73
2022/01/31 15:53:30;;;;;;;27.40;10.00;;;;;;;1.17;66.00;98790.02;107748;1267;136801;-73
2022/01/31 15:56:02;;;;;;;24.20;10.70;;;;;;;1.21;66.05;98794.59;107643;1267;94840;-73
2022/01/31 15:58:37;;;;;;;27.40;11.60;;;;;;;1.21;65.99;98795.61;106282;1268;137121;-71
2022/01/31 16:01:12;;;;;;;32.10;11.70;;;;;;;1.21;66.03;98793.73;106377;1268;110325;-72
2022/01/31 16:03:44;;;;;;;29.60;11.30;;;;;;;1.19;66.00;98801.98;107768;1268;139742;-73
2022/01/31 16:06:16;;;;;;;26.10;10.90;;;;;;;1.19;65.94;98798.05;107873;1268;108877;-71
2022/01/31 16:08:48;;;;;;;26.40;9.90;;;;;;;1.18;65.81;98794.47;107875;1268;94662;-72
2022/01/31 16:11:20;;;;;;;21.20;9.10;;;;;;;1.15;65.55;98796.23;107774;1268;138230;-70
2022/01/31 16:14:13;;;;;;;19.90;8.40;;;;;;;1.13;65.34;98794.58;107853;1267;110483;-71
2022/01/31 16:16:45;;;;;;;24.40;8.00;;;;;;;1.12;65.29;98794.59;107212;1268;138544;-75
2022/01/31 16:19:17;;;;;;;20.40;7.70;;;;;;;1.10;65.13;98794.30;106258;1268;108910;-72
2022/01/31 16:21:49;;;;;;;21.70;7.50;;;;;;;1.09;65.13;98798.75;106245;1270;139432;-72
2022/01/31 16:24:21;;;;;;;20.90;7.70;;;;;;;1.09;64.97;98803.38;106489;1267;96500;-71
2022/01/31 16:26:54;;;;;;;20.00;7.70;;;;;;;1.09;64.99;98802.35;106389;1268;111129;-72
2022/01/31 16:29:27;;;;;;;19.50;7.10;;;;;;;1.10;65.01;98803.87;106353;1268;137378;-72
2022/01/31 16:31:59;;;;;;;17.40;7.20;;;;;;;1.11;64.88;98808.13;107398;1268;108237;-72
2022/01/31 16:34:31;;;;;;;16.80;6.50;;;;;;;1.10;64.80;98810.70;107793;1267;137373;-73
2022/01/31 16:37:03;;;;;;;22.20;7.20;;;;;;;1.10;64.70;98817.23;107869;1268;96014;-72
2022/01/31 16:39:35;;;;;;;17.90;6.70;;;;;;;1.10;64.65;98816.88;107734;1267;137324;-71
2022/01/31 16:42:09;;;;;;;13.90;6.20;;;;;;;1.08;64.61;98824.44;107874;1267;109876;-72
2022/01/31 16:44:41;;;;;;;17.50;6.50;;;;;;;1.07;64.47;98828.89;107903;1267;108770;-72
2022/01/31 16:47:14;;;;;;;16.90;6.70;;;;;;;1.06;64.39;98829.60;107766;1268;138273;-71
2022/01/31 16:49:50;;;;;;;20.40;7.00;;;;;;;1.06;64.49;98828.57;106933;1268;97040;-71
2022/01/31 16:52:23;;;;;;;20.40;7.10;;;;;;;1.04;64.39;98825.34;107466;1267;137111;-71
2022/01/31 16:54:57;;;;;;;16.40;6.90;;;;;;;1.03;64.19;98824.52;106900;1268;109057;-71
2022/01/31 16:57:30;;;;;;;14.70;7.10;;;;;;;1.01;64.19;98822.33;106231;1270;137368;-71
2022/01/31 17:00:02;;;;;;;18.40;7.30;;;;;;;0.97;64.00;98818.64;106784;1268;96506;-71
2022/01/31 17:02:34;;;;;;;16.00;6.30;;;;;;;0.93;63.98;98818.70;106325;1268;96506;-71
2022/01/31 17:05:08;;;;;;;20.50;6.50;;;;;;;0.89;63.85;98815.85;106215;1267;137961;-70
2022/01/31 17:07:41;;;;;;;14.60;6.30;;;;;;;0.85;63.96;98818.46;107873;1267;107364;-70
2022/01/31 17:10:15;;;;;;;14.70;6.70;;;;;;;0.82;63.83;98819.55;107483;1267;137390;-71
2022/01/31 17:12:47;;;;;;;15.00;7.30;;;;;;;0.79;63.74;98819.77;106329;1268;96477;-71
2022/01/31 17:15:19;;;;;;;13.40;6.60;;;;;;;0.74;63.68;98820.88;106449;1268;96452;-73
2022/01/31 17:17:52;;;;;;;15.50;6.90;;;;;;;0.72;63.67;98825.36;106267;1270;137026;-72
2022/01/31 17:20:24;;;;;;;16.80;6.20;;;;;;;0.69;63.58;98825.23;106490;1268;109079;-71
2022/01/31 17:22:57;;;;;;;16.00;6.40;;;;;;;0.64;63.49;98817.09;107600;1268;137444;-72
2022/01/31 17:25:28;;;;;;;12.40;5.70;;;;;;;0.56;63.24;98819.61;106591;1270;96499;-72
2022/01/31 17:28:01;;;;;;;16.40;6.50;;;;;;;0.48;63.34;98820.56;106359;1268;137483;-71
2022/01/31 17:30:33;;;;;;;18.00;7.70;;;;;;;0.41;63.45;98819.15;106366;1268;110255;-72
2022/01/31 17:33:05;;;;;;;16.30;8.00;;;;;;;0.34;63.43;98814.11;106462;1270;108784;-71
2022/01/31 17:35:38;;;;;;;17.90;7.10;;;;;;;0.25;63.20;98816.63;106278;1268;137330;-70
2022/01/31 17:38:10;;;;;;;16.60;6.10;;;;;;;0.17;63.42;98821.34;106415;1268;96468;-72
2022/01/31 17:40:42;;;;;;;15.00;6.60;;;;;;;0.09;63.39;98823.15;106266;1268;137449;-72
2022/01/31 17:43:14;;;;;;;16.50;6.60;;;;;;;0.04;63.64;98829.56;106440;1268;111061;-71
2022/01/31 17:45:45;;;;;;;14.50;6.50;;;;;;;0.00;63.63;98833.36;106237;1268;138147;-71
2022/01/31 17:48:19;;;;;;;16.30;7.80;;;;;;;-0.02;63.81;98830.80;106416;1267;108383;-70
2022/01/31 17:50:53;;;;;;;18.00;8.20;;;;;;;-0.04;63.85;98841.08;107972;1267;94777;-70
2022/01/31 17:53:25;;;;;;;16.90;8.50;;;;;;;-0.05;63.93;98849.46;106916;1267;137953;-71
2022/01/31 17:55:58;;;;;;;22.00;8.30;;;;;;;-0.08;63.94;98841.83;106469;1270;111042;-70
2022/01/31 17:58:30;;;;;;;18.40;8.80;;;;;;;-0.11;64.10;98839.48;106209;1271;137342;-71
2022/01/31 18:01:05;;;;;;;18.70;8.60;;;;;;;-0.15;64.06;98847.90;106441;1268;108415;-72
2022/01/31 18:03:37;;;;;;;20.20;9.00;;;;;;;-0.20;64.27;98843.66;106287;1268;137542;-72
2022/01/31 18:06:09;;;;;;;20.50;9.40;;;;;;;-0.25;64.32;98845.10;106438;1268;96472;-71
2022/01/31 18:08:41;;;;;;;21.10;9.30;;;;;;;-0.30;64.48;98851.14;106424;1267;110498;-71
2022/01/31 18:11:13;;;;;;;17.70;8.70;;;;;;;-0.35;64.71;98853.06;106389;1268;137498;-70
2022/01/31 18:13:45;;;;;;;17.80;8.60;;;;;;;-0.39;64.82;98855.14;106405;1268;108656;-71
2022/01/31 18:16:16;;;;;;;16.40;7.90;;;;;;;-0.42;64.77;98862.52;106760;1267;137495;-71
2022/01/31 18:18:49;;;;;;;20.50;8.50;;;;;;;-0.46;64.86;98867.19;107946;1267;98341;-72
2022/01/31 18:21:20;;;;;;;20.60;7.90;;;;;;;-0.52;64.68;98874.59;106692;1268;110735;-71
2022/01/31 18:23:53;;;;;;;19.00;8.00;;;;;;;-0.58;65.15;98879.58;106205;1270;137386;-72
2022/01/31 18:26:25;;;;;;;16.20;7.70;;;;;;;-0.64;64.89;98880.48;106398;1268;107782;-71
2022/01/31 18:28:57;;;;;;;16.10;7.40;;;;;;;-0.69;65.04;98880.89;106375;1268;138114;-70
2022/01/31 18:31:29;;;;;;;21.50;8.80;;;;;;;-0.74;65.18;98883.13;106456;1267;96469;-71
2022/01/31 18:34:01;;;;;;;19.60;7.80;;;;;;;-0.76;65.33;98879.39;106202;1270;138498;-71
2022/01/31 18:36:33;;;;;;;16.30;7.60;;;;;;;-0.76;65.60;98878.03;106482;1267;108956;-71
2022/01/31 18:39:07;;;;;;;17.40;8.00;;;;;;;-0.76;65.31;98887.92;106407;1268;108740;-71
2022/01/31 18:41:39;;;;;;;18.40;7.60;;;;;;;-0.76;65.59;98890.66;106244;1268;137516;-72
2022/01/31 18:44:11;;;;;;;20.40;8.70;;;;;;;-0.75;65.58;98899.70;106591;1268;97140;-70
2022/01/31 18:46:46;;;;;;;18.00;7.90;;;;;;;-0.75;65.79;98896.80;107832;1266;137428;-71
2022/01/31 18:49:18;;;;;;;21.00;8.50;;;;;;;-0.78;65.62;98896.48;107899;1268;109164;-70
2022/01/31 18:51:55;;;;;;;19.00;9.00;;;;;;;-0.81;65.54;98903.00;107765;1270;137655;-70
2022/01/31 18:54:26;;;;;;;;;;;;;;;-0.86;65.81;98905.27;107873;1270;95045;-70
2022/01/31 18:57:11;;;;;;;18.60;8.10;;;;;;;-0.91;65.76;98911.93;107940;1268;94606;-72
2022/01/31 18:59:44;;;;;;;20.50;9.40;;;;;;;-0.94;65.76;98915.20;107082;1270;137249;-71
2022/01/31 19:02:17;;;;;;;23.00;10.40;;;;;;;-0.99;65.94;98913.38;106332;1268;109386;-71
2022/01/31 19:04:49;;;;;;;27.30;10.20;;;;;;;-1.04;66.11;98914.11;106280;1268;137653;-71
2022/01/31 19:07:21;;;;;;;25.00;10.00;;;;;;;-1.09;65.99;98915.65;106434;1268;96479;-71
2022/01/31 19:09:53;;;;;;;27.90;11.50;;;;;;;-1.13;65.97;98911.92;106371;1267;137625;-72
2022/01/31 19:12:36;;;;;;;22.70;10.80;;;;;;;-1.18;65.99;98912.48;106399;1270;111598;-72
2022/01/31 19:17:59;;;;;;;20.90;9.90;;;;;;;-1.27;66.01;98915.59;107048;1267;138808;-71
2022/01/31 19:20:31;;;;;;;21.80;9.20;;;;;;;-1.30;66.17;98923.11;106408;1268;96532;-70
2022/01/31 19:23:04;;;;;;;18.80;9.00;;;;;;;-1.30;66.15;98927.36;106219;1267;138810;-71
2022/01/31 19:25:36;;;;;;;23.20;9.50;;;;;;;-1.27;66.11;98926.51;106259;1270;112309;-71
2022/01/31 19:28:09;;;;;;;20.60;9.40;;;;;;;-1.23;65.97;98932.29;106352;1267;138220;-71